Airfield :
LOGIN :

Register | Disclaimer

   EN    FR    IT 

 










Legend :    VFR   Marginal VFR   IFR   Intensive IFR   Very Intensive IFR
Visi :
Ceiling :
>= 8 km
>= 3000ft
5 to 8 km
1000 to 3000 ft
1500m to 5 km
500 to 1000 ft
800 to 1500m
200 to 500 ft
< 800m
< 200 ft
Symbols :   Thunderstorms  Fog  Heavy snow  Heavy precipitations  Wind > 20 kt
SIGMETs :     Misc.  Thunderstorms  Icing  Turbulence  Mountain Waves  Volcanic Ashes






- Airport Elevation : 19 ft
- IATA code : LCY


EGLC - London City

CURRENT METAR :
  • 192220Z AUTO 05006KT 350V080 9999 BKN009 OVC013 14/12 Q1010

EXPIRED METARs :
  • 192150Z AUTO 06010KT 9999 OVC009 14/12 Q1010
  • 192120Z AUTO 07009KT 030V100 9999 OVC011 14/12 Q1011
  • 192050Z AUTO 07011KT 9999 OVC012 14/12 Q1010
  • 192020Z AUTO 07012KT 9999 FEW011 OVC016 15/12 Q1011
  • 191950Z AUTO 06011KT 9999 SCT011 OVC020 15/13 Q1011

Expired Forecast.
ATIS : +44 20 7646 0224



MET'MAP, your aeronautical weather chart ! - Copyright ORBIFLY December 2007 - Disclaimer

ORBIFLY MET'MAP TEAM :

Programming & Development : Alexandra Zaïnal
Concept & original design : Baudouin d'Aumeries
Assistance for programming : Marc-Olivier Méhu
Technical & hardware support : Manuel Goepfert

Contact : metmap@orbifly.com




SOURCES & CREDITS :

   NOAA